createdAt,value
2023-05-01T00:01:19.374Z,7.93
2023-05-01T00:03:48.647Z,8.00
2023-05-01T00:06:16.593Z,7.97
2023-05-01T00:08:44.380Z,7.96
2023-05-01T00:11:12.569Z,7.65
2023-05-01T00:13:40.318Z,7.87
2023-05-01T00:16:12.822Z,7.34
2023-05-01T00:18:40.573Z,7.88
2023-05-01T00:21:08.908Z,7.48
2023-05-01T00:23:36.691Z,7.93
2023-05-01T00:26:08.026Z,7.84
2023-05-01T00:28:36.492Z,7.97
2023-05-01T00:31:04.163Z,7.94
2023-05-01T00:33:31.840Z,8.13
2023-05-01T00:35:59.901Z,7.88
2023-05-01T00:38:27.635Z,7.91
2023-05-01T00:40:55.183Z,7.73
2023-05-01T00:43:22.976Z,7.74
2023-05-01T00:45:50.685Z,7.66
2023-05-01T00:48:18.627Z,7.80
2023-05-01T00:50:47.688Z,7.53
2023-05-01T00:53:15.481Z,7.73
2023-05-01T00:55:43.430Z,7.74
2023-05-01T00:58:14.284Z,7.21
2023-05-01T01:00:42.147Z,7.62
2023-05-01T01:03:10.366Z,7.18
2023-05-01T01:06:13.643Z,7.40
2023-05-01T01:08:49.911Z,7.49
2023-05-01T01:11:34.696Z,7.01
2023-05-01T01:14:19.473Z,7.56
2023-05-01T01:17:10.453Z,7.41
2023-05-01T01:20:27.882Z,7.09
2023-05-01T01:23:27.261Z,7.32
2023-05-01T01:26:23.458Z,7.49
2023-05-01T01:29:30.526Z,7.35
2023-05-01T01:32:39.421Z,7.56
2023-05-01T01:35:14.422Z,7.00
2023-05-01T01:38:06.881Z,6.81
2023-05-01T01:40:50.655Z,6.67
2023-05-01T01:43:20.327Z,6.73
2023-05-01T01:45:57.654Z,7.20
2023-05-01T01:48:43.394Z,6.72
2023-05-01T01:51:18.150Z,7.07
2023-05-01T01:53:53.779Z,6.94
2023-05-01T01:56:22.887Z,6.75
2023-05-01T01:58:52.782Z,6.87
2023-05-01T02:01:24.112Z,6.73
2023-05-01T02:03:53.465Z,6.46
2023-05-01T02:06:23.159Z,6.44
2023-05-01T02:08:51.604Z,5.92
2023-05-01T02:11:22.914Z,6.00
2023-05-01T02:13:52.516Z,6.40
2023-05-01T02:16:23.016Z,6.31
2023-05-01T02:18:54.114Z,6.04
2023-05-01T02:21:23.437Z,5.73
2023-05-01T02:23:51.211Z,5.85
2023-05-01T02:26:25.163Z,6.04
2023-05-01T02:28:53.439Z,6.30
2023-05-01T02:31:23.380Z,6.32
2023-05-01T02:33:51.080Z,6.22
2023-05-01T02:36:18.759Z,6.40
2023-05-01T02:38:47.234Z,6.04
2023-05-01T02:41:16.724Z,6.08
2023-05-01T02:43:47.272Z,5.97
2023-05-01T02:46:18.434Z,5.92
2023-05-01T02:48:46.763Z,5.72
2023-05-01T02:51:14.663Z,5.90
2023-05-01T02:53:42.769Z,5.97
2023-05-01T02:56:19.310Z,6.32
2023-05-01T02:58:49.545Z,6.12
2023-05-01T03:01:17.368Z,5.85
2023-05-01T03:03:45.454Z,6.35
2023-05-01T03:06:16.497Z,6.15
2023-05-01T03:08:44.331Z,6.62
2023-05-01T03:11:11.866Z,6.12
2023-05-01T03:13:39.744Z,5.89
2023-05-01T03:16:07.589Z,5.84
2023-05-01T03:18:35.260Z,5.93
2023-05-01T03:21:02.858Z,6.22
2023-05-01T03:23:30.976Z,5.66
2023-05-01T03:25:59.434Z,5.99
2023-05-01T03:28:27.383Z,5.57
2023-05-01T03:30:54.972Z,5.40
2023-05-01T03:33:22.826Z,5.42
2023-05-01T03:36:02.055Z,5.35
2023-05-01T03:38:33.149Z,5.70
2023-05-01T03:41:10.113Z,5.79
2023-05-01T03:44:00.740Z,5.65
2023-05-01T03:46:36.540Z,5.52
2023-05-01T03:49:06.347Z,5.18
2023-05-01T03:51:39.020Z,5.00
2023-05-01T03:54:07.233Z,5.50
2023-05-01T03:56:48.995Z,5.83
2023-05-01T03:59:20.326Z,5.90
2023-05-01T04:01:48.054Z,5.90
2023-05-01T04:04:15.791Z,6.08
2023-05-01T04:06:49.706Z,6.05
2023-05-01T04:09:18.066Z,5.85
2023-05-01T04:11:46.748Z,6.12
2023-05-01T04:14:14.485Z,6.09
2023-05-01T04:16:42.229Z,6.36
2023-05-01T04:19:10.717Z,6.45
2023-05-01T04:21:42.679Z,6.21
2023-05-01T04:24:10.373Z,6.05
2023-05-01T04:26:39.026Z,6.19
2023-05-01T04:29:07.445Z,5.82
2023-05-01T04:31:36.106Z,6.19
2023-05-01T04:34:03.930Z,6.29
2023-05-01T04:36:33.078Z,6.37
2023-05-01T04:39:00.920Z,6.52
2023-05-01T04:41:30.273Z,6.88
2023-05-01T04:43:58.065Z,7.05
2023-05-01T04:46:25.728Z,6.90
2023-05-01T04:48:54.391Z,7.23
2023-05-01T04:51:22.512Z,7.09
2023-05-01T04:53:51.201Z,7.08
2023-05-01T04:56:25.798Z,7.16
2023-05-01T04:58:57.368Z,7.14
2023-05-01T05:01:27.655Z,7.21
2023-05-01T05:03:55.659Z,7.64
2023-05-01T05:06:23.611Z,7.59
2023-05-01T05:08:52.103Z,7.69
2023-05-01T05:11:19.806Z,7.92
2023-05-01T05:13:58.725Z,7.65
2023-05-01T05:16:26.538Z,7.04
2023-05-01T05:18:57.468Z,7.67
2023-05-01T05:21:27.438Z,7.80
2023-05-01T05:23:57.781Z,7.59
2023-05-01T05:26:26.694Z,7.44
2023-05-01T05:28:55.832Z,7.81
2023-05-01T05:31:23.687Z,7.70
2023-05-01T05:33:51.809Z,8.07
2023-05-01T05:36:19.467Z,8.63
2023-05-01T05:38:47.302Z,8.09
2023-05-01T05:41:18.437Z,8.06
2023-05-01T05:43:50.242Z,8.30
2023-05-01T05:46:17.988Z,8.29
2023-05-01T05:48:45.743Z,7.84
2023-05-01T05:51:13.492Z,8.84
2023-05-01T05:53:41.127Z,8.38
2023-05-01T05:56:09.383Z,8.67
2023-05-01T05:58:39.973Z,9.44
2023-05-01T06:01:11.681Z,9.64
2023-05-01T06:03:40.472Z,8.94
2023-05-01T06:06:08.212Z,9.80
2023-05-01T06:08:40.041Z,9.48
2023-05-01T06:11:11.613Z,9.64
2023-05-01T06:13:39.667Z,10.12
2023-05-01T06:16:08.045Z,9.73
2023-05-01T06:18:35.873Z,10.70
2023-05-01T06:21:03.718Z,10.66
2023-05-01T06:23:33.886Z,11.24
2023-05-01T06:26:21.473Z,11.73
2023-05-01T06:28:49.314Z,11.50
2023-05-01T06:31:17.186Z,12.08
2023-05-01T06:33:50.524Z,11.95
2023-05-01T06:36:29.850Z,12.13
2023-05-01T06:39:00.161Z,11.91
2023-05-01T06:41:28.626Z,12.33
2023-05-01T06:43:56.345Z,12.04
2023-05-01T06:46:24.103Z,12.47
2023-05-01T06:48:51.783Z,13.09
2023-05-01T06:51:19.589Z,13.35
2023-05-01T06:53:47.249Z,13.52
2023-05-01T06:56:15.086Z,13.64
2023-05-01T06:58:42.710Z,12.94
2023-05-01T07:01:10.428Z,13.71
2023-05-01T07:03:38.519Z,13.98
2023-05-01T07:06:06.212Z,13.49
2023-05-01T07:08:33.863Z,13.94
2023-05-01T07:11:01.882Z,14.40
2023-05-01T07:13:29.507Z,14.57
2023-05-01T07:15:57.316Z,14.48
2023-05-01T07:18:24.977Z,14.35
2023-05-01T07:20:52.853Z,13.89
2023-05-01T07:23:20.613Z,14.55
2023-05-01T07:25:48.181Z,14.10
2023-05-01T07:28:17.981Z,13.99
2023-05-01T07:30:45.734Z,14.81
2023-05-01T07:33:13.480Z,14.00
2023-05-01T07:35:41.392Z,14.20
2023-05-01T07:38:09.108Z,14.72
2023-05-01T07:40:36.906Z,14.97
2023-05-01T07:43:05.056Z,15.50
2023-05-01T07:45:32.822Z,16.22
2023-05-01T07:48:00.708Z,16.42
2023-05-01T07:50:28.809Z,16.43
2023-05-01T07:52:57.364Z,16.46
2023-05-01T07:55:25.671Z,15.98
2023-05-01T07:57:53.256Z,16.69
2023-05-01T08:00:20.938Z,16.80
2023-05-01T08:02:48.737Z,17.08
2023-05-01T08:05:16.473Z,17.83
2023-05-01T08:07:44.950Z,17.89
2023-05-01T08:10:12.696Z,17.84
2023-05-01T08:12:40.416Z,17.57
2023-05-01T08:15:08.621Z,18.13
2023-05-01T08:17:36.982Z,18.09
2023-05-01T08:20:05.551Z,18.04
2023-05-01T08:22:34.163Z,17.83
2023-05-01T08:25:01.961Z,18.43
2023-05-01T08:27:31.335Z,17.86
2023-05-01T08:29:59.354Z,18.78
2023-05-01T08:32:27.059Z,18.73
2023-05-01T08:34:54.917Z,18.92
2023-05-01T08:37:22.590Z,18.40
2023-05-01T08:39:50.566Z,18.30
2023-05-01T08:42:18.668Z,19.08
2023-05-01T08:44:47.806Z,18.73
2023-05-01T08:47:18.356Z,18.26
2023-05-01T08:49:47.332Z,18.01
2023-05-01T08:52:15.581Z,18.94
2023-05-01T08:54:45.172Z,19.22
2023-05-01T08:57:13.618Z,18.64
2023-05-01T08:59:41.585Z,18.20
2023-05-01T09:02:10.482Z,17.79
2023-05-01T09:04:40.930Z,18.63
2023-05-01T09:07:10.155Z,18.75
2023-05-01T09:09:37.973Z,19.50
2023-05-01T09:12:27.747Z,17.83
2023-05-01T09:14:57.089Z,18.78
2023-05-01T09:17:25.159Z,17.83
2023-05-01T09:19:53.649Z,17.52
2023-05-01T09:22:21.638Z,17.87
2023-05-01T09:24:49.805Z,18.73
2023-05-01T09:27:17.596Z,18.00
2023-05-01T09:29:47.867Z,17.56
2023-05-01T09:32:29.935Z,18.09
2023-05-01T09:35:15.241Z,18.57
2023-05-01T09:37:44.565Z,18.26
2023-05-01T09:40:14.861Z,18.80
2023-05-01T09:42:53.656Z,19.50
2023-05-01T09:45:23.441Z,19.46
2023-05-01T09:47:51.182Z,19.81
2023-05-01T09:50:34.243Z,19.59
2023-05-01T09:53:05.033Z,19.58
2023-05-01T09:55:34.372Z,19.76
2023-05-01T09:58:02.573Z,20.04
2023-05-01T10:00:30.441Z,19.40
2023-05-01T10:02:58.477Z,18.31
2023-05-01T10:05:26.566Z,18.23
2023-05-01T10:08:03.516Z,19.31
2023-05-01T10:10:31.477Z,19.84
2023-05-01T10:13:17.320Z,20.22
2023-05-01T10:15:49.045Z,19.76
2023-05-01T10:18:18.260Z,19.71
2023-05-01T10:20:46.298Z,19.88
2023-05-01T10:23:14.542Z,19.93
2023-05-01T10:25:42.950Z,19.59
2023-05-01T10:28:12.497Z,18.67
2023-05-01T10:30:41.331Z,18.84
2023-05-01T10:33:09.122Z,18.91
2023-05-01T10:35:42.634Z,18.66
2023-05-01T10:38:26.768Z,19.94
2023-05-01T10:40:54.511Z,20.24
2023-05-01T10:43:26.011Z,20.60
2023-05-01T10:46:21.819Z,20.46
2023-05-01T10:48:49.565Z,19.82
2023-05-01T10:51:27.504Z,20.76
2023-05-01T10:54:21.202Z,20.73
2023-05-01T10:56:49.197Z,20.55
2023-05-01T10:59:16.959Z,21.20
2023-05-01T11:01:48.074Z,21.40
2023-05-01T11:04:22.020Z,20.78
2023-05-01T11:07:03.044Z,21.45
2023-05-01T11:09:47.188Z,21.55
2023-05-01T11:12:46.861Z,22.11
2023-05-01T11:15:33.343Z,21.72
2023-05-01T11:18:05.995Z,22.83
2023-05-01T11:20:36.942Z,23.84
2023-05-01T11:23:07.666Z,23.02
2023-05-01T11:25:38.133Z,22.31
2023-05-01T11:28:06.829Z,21.79
2023-05-01T11:30:40.728Z,22.21
2023-05-01T11:33:11.997Z,22.65
2023-05-01T11:35:40.012Z,22.34
2023-05-01T11:38:18.844Z,21.17
2023-05-01T11:40:56.263Z,20.94
2023-05-01T11:43:24.063Z,21.54
2023-05-01T11:46:02.300Z,21.12
2023-05-01T11:48:31.042Z,21.59
2023-05-01T11:50:58.812Z,22.48
2023-05-01T11:53:27.427Z,22.47
2023-05-01T11:55:55.677Z,22.34
2023-05-01T11:58:34.846Z,22.61
2023-05-01T12:01:03.323Z,23.11
2023-05-01T12:03:42.564Z,23.37
2023-05-01T12:06:13.865Z,23.90
2023-05-01T12:08:51.058Z,23.15
2023-05-01T12:11:20.640Z,23.14
2023-05-01T12:13:50.205Z,22.83
2023-05-01T12:16:18.392Z,22.60
2023-05-01T12:18:46.257Z,22.50
2023-05-01T12:21:20.069Z,21.90
2023-05-01T12:23:47.828Z,22.88
2023-05-01T12:26:25.253Z,23.11
2023-05-01T12:29:03.817Z,22.13
2023-05-01T12:31:32.426Z,22.61
2023-05-01T12:34:07.523Z,23.17
2023-05-01T12:36:37.427Z,23.60
2023-05-01T12:39:11.783Z,23.24
2023-05-01T12:41:42.563Z,23.22
2023-05-01T12:44:28.039Z,23.11
2023-05-01T12:47:01.917Z,21.64
2023-05-01T12:49:34.282Z,21.21
2023-05-01T12:52:03.715Z,21.58
2023-05-01T12:54:39.355Z,22.32
2023-05-01T12:57:11.870Z,22.30
2023-05-01T12:59:42.277Z,23.18
2023-05-01T13:02:15.858Z,24.49
2023-05-01T13:04:45.138Z,24.98
2023-05-01T13:07:18.081Z,24.69
2023-05-01T13:10:00.087Z,25.28
2023-05-01T13:12:29.626Z,24.83
2023-05-01T13:14:58.472Z,24.16
2023-05-01T13:17:32.661Z,24.56
2023-05-01T13:20:05.004Z,24.98
2023-05-01T13:22:38.986Z,24.71
2023-05-01T13:25:20.562Z,24.40
2023-05-01T13:27:53.315Z,25.07
2023-05-01T13:30:32.550Z,24.57
2023-05-01T13:33:01.847Z,23.86
2023-05-01T13:35:30.960Z,24.56
2023-05-01T13:37:58.744Z,25.17
2023-05-01T13:40:27.853Z,25.65
2023-05-01T13:42:55.758Z,25.33
2023-05-01T13:45:24.604Z,26.21
2023-05-01T13:47:52.589Z,26.25
2023-05-01T13:50:21.479Z,26.39
2023-05-01T13:52:49.176Z,25.36
2023-05-01T13:55:17.688Z,24.97
2023-05-01T13:57:45.418Z,25.03
2023-05-01T14:00:18.047Z,24.75
2023-05-01T14:02:48.699Z,25.11
2023-05-01T14:05:21.297Z,25.86
2023-05-01T14:07:58.353Z,26.07
2023-05-01T14:10:28.691Z,26.04
2023-05-01T14:12:59.432Z,26.64
2023-05-01T14:15:28.601Z,26.49
2023-05-01T14:18:02.854Z,26.62
2023-05-01T14:20:44.451Z,26.75
2023-05-01T14:23:14.006Z,25.99
2023-05-01T14:25:41.810Z,25.68
2023-05-01T14:28:09.392Z,25.60
2023-05-01T14:30:38.947Z,26.08
2023-05-01T14:33:12.980Z,26.30
2023-05-01T14:35:58.711Z,26.50
2023-05-01T14:38:27.540Z,26.51
2023-05-01T14:40:55.223Z,26.08
2023-05-01T14:43:22.887Z,26.32
2023-05-01T14:45:50.768Z,26.49
2023-05-01T14:48:23.643Z,26.11
2023-05-01T14:50:52.330Z,26.24
2023-05-01T14:53:20.081Z,26.55
2023-05-01T14:55:51.517Z,26.47
2023-05-01T14:58:19.206Z,26.68
2023-05-01T15:00:46.894Z,26.77
2023-05-01T15:03:14.676Z,26.82
2023-05-01T15:05:42.397Z,26.59
2023-05-01T15:08:10.204Z,26.92
2023-05-01T15:10:38.702Z,27.28
2023-05-01T15:13:06.670Z,27.71
2023-05-01T15:15:34.340Z,27.17
2023-05-01T15:18:04.007Z,26.99
2023-05-01T15:20:31.914Z,27.28
2023-05-01T15:22:59.523Z,27.19
2023-05-01T15:25:27.357Z,25.96
2023-05-01T15:27:55.424Z,26.59
2023-05-01T15:30:23.299Z,26.22
2023-05-01T15:32:51.869Z,26.27
2023-05-01T15:35:21.418Z,26.42
2023-05-01T15:37:49.639Z,26.69
2023-05-01T15:40:17.624Z,26.06
2023-05-01T15:42:47.904Z,24.46
2023-05-01T15:45:15.752Z,25.27
2023-05-01T15:47:43.440Z,26.06
2023-05-01T15:50:14.590Z,25.88
2023-05-01T15:52:42.280Z,25.74
2023-05-01T15:55:10.069Z,25.24
2023-05-01T15:57:37.686Z,25.03
2023-05-01T16:00:06.558Z,24.62
2023-05-01T16:02:34.258Z,24.45
2023-05-01T16:05:02.053Z,24.20
2023-05-01T16:07:29.826Z,24.27
2023-05-01T16:10:05.661Z,23.42
2023-05-01T16:12:33.505Z,23.59
2023-05-01T16:15:14.757Z,23.50
2023-05-01T16:17:46.512Z,23.32
2023-05-01T16:20:17.003Z,22.64
2023-05-01T16:22:44.943Z,23.20
2023-05-01T16:25:13.780Z,23.16
2023-05-01T16:27:44.802Z,22.74
2023-05-01T16:30:16.853Z,22.78
2023-05-01T16:32:46.067Z,22.93
2023-05-01T16:35:18.302Z,22.34
2023-05-01T16:37:46.063Z,22.98
2023-05-01T16:40:18.058Z,22.52
2023-05-01T16:42:54.165Z,22.97
2023-05-01T16:45:22.302Z,23.03
2023-05-01T16:47:50.005Z,23.24
2023-05-01T16:50:19.248Z,23.34
2023-05-01T16:52:46.872Z,23.29
2023-05-01T16:55:14.909Z,23.27
2023-05-01T16:57:44.256Z,23.02
2023-05-01T17:00:16.476Z,22.86
2023-05-01T17:02:49.967Z,23.04
2023-05-01T17:05:18.633Z,22.86
2023-05-01T17:07:46.601Z,22.53
2023-05-01T17:10:17.996Z,22.41
2023-05-01T17:12:45.711Z,22.51
2023-05-01T17:15:13.542Z,22.48
2023-05-01T17:17:41.296Z,22.23
2023-05-01T17:20:10.101Z,22.32
2023-05-01T17:22:38.027Z,22.19
2023-05-01T17:25:06.622Z,22.36
2023-05-01T17:27:34.688Z,22.40
2023-05-01T17:30:02.586Z,22.33
2023-05-01T17:32:37.123Z,22.28
2023-05-01T17:35:08.533Z,22.31
2023-05-01T17:37:39.700Z,22.25
2023-05-01T17:40:10.956Z,22.00
2023-05-01T17:42:39.564Z,22.06
2023-05-01T17:45:10.192Z,21.98
2023-05-01T17:47:42.769Z,21.87
2023-05-01T17:50:13.568Z,21.69
2023-05-01T17:52:49.974Z,21.51
2023-05-01T17:55:18.388Z,21.40
2023-05-01T17:57:47.572Z,21.26
2023-05-01T18:00:16.251Z,21.13
2023-05-01T18:02:44.887Z,21.08
2023-05-01T18:05:16.404Z,21.07
2023-05-01T18:07:44.248Z,20.96
2023-05-01T18:10:12.079Z,20.77
2023-05-01T18:12:40.047Z,20.49
2023-05-01T18:15:08.476Z,20.29
2023-05-01T18:17:36.370Z,20.31
2023-05-01T18:20:04.220Z,20.16
2023-05-01T18:22:32.883Z,19.98
2023-05-01T18:25:00.833Z,19.93
2023-05-01T18:27:28.604Z,19.86
2023-05-01T18:29:56.769Z,19.83
2023-05-01T18:32:39.309Z,19.77
2023-05-01T18:35:15.484Z,19.69
2023-05-01T18:37:43.826Z,19.72
2023-05-01T18:40:12.802Z,19.63
2023-05-01T18:42:41.952Z,19.54
2023-05-01T18:45:10.199Z,19.47
2023-05-01T18:47:38.222Z,19.41
2023-05-01T18:50:07.296Z,19.01
2023-05-01T18:52:37.055Z,18.75
2023-05-01T18:55:05.753Z,18.33
2023-05-01T18:57:33.500Z,18.81
2023-05-01T19:00:01.808Z,18.85
2023-05-01T19:02:29.664Z,18.89
2023-05-01T19:04:58.369Z,18.90
2023-05-01T19:07:26.803Z,18.88
2023-05-01T19:09:54.621Z,18.85
2023-05-01T19:12:22.253Z,18.79
2023-05-01T19:14:49.940Z,18.72
2023-05-01T19:17:19.013Z,18.56
2023-05-01T19:19:46.921Z,18.66
2023-05-01T19:22:14.613Z,18.58
2023-05-01T19:24:42.301Z,18.59
2023-05-01T19:27:15.867Z,18.43
2023-05-01T19:29:44.737Z,18.53
2023-05-01T19:32:12.870Z,18.38
2023-05-01T19:34:40.523Z,18.25
2023-05-01T19:37:08.335Z,17.90
2023-05-01T19:39:36.034Z,18.00
2023-05-01T19:42:03.793Z,17.34
2023-05-01T19:44:31.499Z,16.75
2023-05-01T19:46:59.223Z,16.87
2023-05-01T19:49:26.939Z,16.69
2023-05-01T19:51:54.653Z,17.36
2023-05-01T19:54:23.117Z,17.81
2023-05-01T19:56:59.481Z,17.92
2023-05-01T19:59:27.202Z,18.06
2023-05-01T20:01:55.145Z,18.03
2023-05-01T20:04:24.123Z,18.08
2023-05-01T20:06:52.137Z,18.03
2023-05-01T20:09:19.966Z,18.02
2023-05-01T20:11:47.627Z,18.00
2023-05-01T20:14:15.318Z,17.98
2023-05-01T20:16:42.998Z,17.92
2023-05-01T20:19:10.870Z,17.89
2023-05-01T20:21:38.448Z,17.88
2023-05-01T20:24:06.155Z,17.82
2023-05-01T20:26:33.818Z,17.80
2023-05-01T20:29:01.554Z,17.74
2023-05-01T20:31:29.295Z,17.73
2023-05-01T20:33:56.975Z,17.70
2023-05-01T20:36:25.548Z,17.69
2023-05-01T20:38:53.761Z,17.66
2023-05-01T20:41:21.730Z,17.60
2023-05-01T20:43:49.428Z,17.36
2023-05-01T20:46:17.152Z,17.34
2023-05-01T20:48:45.899Z,17.34
2023-05-01T20:51:15.779Z,17.31
2023-05-01T20:53:43.447Z,17.20
2023-05-01T20:56:11.223Z,16.78
2023-05-01T20:58:38.886Z,16.60
2023-05-01T21:01:09.892Z,16.03
2023-05-01T21:03:38.141Z,15.47
2023-05-01T21:06:06.009Z,15.85
2023-05-01T21:08:33.937Z,16.11
2023-05-01T21:11:02.416Z,15.98
2023-05-01T21:13:32.127Z,15.77
2023-05-01T21:16:00.853Z,15.84
2023-05-01T21:18:33.310Z,16.09
2023-05-01T21:21:02.417Z,16.26
2023-05-01T21:23:30.786Z,16.30
2023-05-01T21:25:58.558Z,16.33
2023-05-01T21:28:29.373Z,16.46
2023-05-01T21:30:57.126Z,16.22
2023-05-01T21:33:25.055Z,16.26
2023-05-01T21:35:52.760Z,16.36
2023-05-01T21:38:20.412Z,16.09
2023-05-01T21:40:48.134Z,16.35
2023-05-01T21:43:16.273Z,16.41
2023-05-01T21:45:44.615Z,16.36
2023-05-01T21:48:16.139Z,16.15
2023-05-01T21:50:47.789Z,16.13
2023-05-01T21:53:16.407Z,16.10
2023-05-01T21:55:48.786Z,16.15
2023-05-01T21:58:16.504Z,16.17
2023-05-01T22:00:46.233Z,16.14
2023-05-01T22:03:18.121Z,16.20
2023-05-01T22:05:46.264Z,16.22
2023-05-01T22:08:13.868Z,16.07
2023-05-01T22:10:42.825Z,15.97
2023-05-01T22:13:11.400Z,15.92
2023-05-01T22:15:39.420Z,15.87
2023-05-01T22:18:07.054Z,15.82
2023-05-01T22:20:34.664Z,15.74
2023-05-01T22:23:02.245Z,15.68
2023-05-01T22:25:29.870Z,15.60
2023-05-01T22:27:57.830Z,15.58
2023-05-01T22:30:25.445Z,15.55
2023-05-01T22:32:53.096Z,15.56
2023-05-01T22:35:20.764Z,15.54
2023-05-01T22:37:48.356Z,15.55
2023-05-01T22:40:16.241Z,15.51
2023-05-01T22:42:43.821Z,15.40
2023-05-01T22:45:11.541Z,15.48
2023-05-01T22:47:39.182Z,15.47
2023-05-01T22:50:07.466Z,15.43
2023-05-01T22:52:35.278Z,15.37
2023-05-01T22:55:03.023Z,15.31
2023-05-01T22:57:30.879Z,15.20
2023-05-01T22:59:58.611Z,15.07
2023-05-01T23:02:26.710Z,14.98
2023-05-01T23:04:54.501Z,14.92
2023-05-01T23:07:22.234Z,14.86
2023-05-01T23:09:49.932Z,14.81
2023-05-01T23:12:22.710Z,14.68
2023-05-01T23:14:50.551Z,14.51
2023-05-01T23:17:18.321Z,14.54
2023-05-01T23:19:46.112Z,14.41
2023-05-01T23:22:14.069Z,14.49
2023-05-01T23:24:48.375Z,14.46
2023-05-01T23:27:19.987Z,14.38
2023-05-01T23:29:59.031Z,14.30
2023-05-01T23:32:31.748Z,14.28
2023-05-01T23:35:23.819Z,13.24
2023-05-01T23:37:52.952Z,12.64
2023-05-01T23:40:20.803Z,12.14
2023-05-01T23:42:49.056Z,11.76
2023-05-01T23:45:17.007Z,11.80
2023-05-01T23:47:44.673Z,11.84
2023-05-01T23:50:12.474Z,11.54
2023-05-01T23:52:40.325Z,10.97
2023-05-01T23:55:08.189Z,11.26
2023-05-01T23:57:35.753Z,10.93
